Time,TemperatureF,DewpointF,PressureIn,WindDirection,WindDirectionDegrees,WindSpeedMPH,WindSpeedGustMPH,Humidity,HourlyPrecipIn,Conditions,Clouds,dailyrainin,SoftwareType,DateUTC
2013-01-19 00:00:00,20.6,17.9,30.38,SSE,165,0.0,0.0,89,0.00,,,0.00,Wunderground v.1.15,2013-01-19 05:00:00,
2013-01-19 00:05:00,20.6,17.9,30.38,SSE,165,0.0,0.0,89,0.00,,,0.00,Wunderground v.1.15,2013-01-19 05:05:00,
2013-01-19 00:10:00,20.6,18.1,30.38,SSE,165,0.0,0.0,90,0.00,,,0.00,Wunderground v.1.15,2013-01-19 05:10:00,
2013-01-19 00:15:00,20.4,17.9,30.37,N/A,-737280,0.0,-999.0,90,0.00,,,0.00,Wunderground v.1.15,2013-01-19 05:15:00,
2013-01-19 00:20:00,20.5,18.0,30.37,SSE,165,0.0,0.0,90,0.00,,,0.00,Wunderground v.1.15,2013-01-19 05:20:00,
2013-01-19 00:25:00,20.4,17.9,30.37,N/A,-737280,0.0,-999.0,90,0.00,,,0.00,Wunderground v.1.15,2013-01-19 05:25:00,
2013-01-19 00:30:00,20.4,17.9,30.37,SSE,165,0.0,0.0,90,0.00,,,0.00,Wunderground v.1.15,2013-01-19 05:30:00,
2013-01-19 00:35:00,20.4,17.9,30.37,N/A,-737280,0.0,-999.0,90,0.00,,,0.00,Wunderground v.1.15,2013-01-19 05:35:00,
2013-01-19 00:40:00,20.4,17.9,30.37,N/A,-737280,0.0,-999.0,90,0.00,,,0.00,Wunderground v.1.15,2013-01-19 05:40:00,
2013-01-19 00:45:00,20.2,17.7,30.37,SSE,158,0.0,-999.0,90,0.00,,,0.00,Wunderground v.1.15,2013-01-19 05:45:00,
2013-01-19 00:50:00,20.2,17.7,30.37,SSE,165,0.0,0.0,90,0.00,,,0.00,Wunderground v.1.15,2013-01-19 05:50:00,
2013-01-19 00:55:00,20.2,17.7,30.37,SSE,165,0.0,0.0,90,0.00,,,0.00,Wunderground v.1.15,2013-01-19 05:55:00,
2013-01-19 01:00:00,20.2,17.7,30.37,SSE,158,0.0,-999.0,90,0.00,,,0.00,Wunderground v.1.15,2013-01-19 06:00:00,
2013-01-19 01:05:00,20.2,17.7,30.37,SSE,158,0.0,-999.0,90,0.00,,,0.00,Wunderground v.1.15,2013-01-19 06:05:00,
2013-01-19 01:10:00,20.2,17.7,30.37,SSE,158,0.0,-999.0,90,0.00,,,0.00,Wunderground v.1.15,2013-01-19 06:10:00,
2013-01-19 01:15:00,20.0,17.8,30.36,N/A,-737280,0.0,-999.0,91,0.00,,,0.00,Wunderground v.1.15,2013-01-19 06:15:00,
2013-01-19 01:20:00,20.0,17.8,30.36,N/A,-737280,0.0,-999.0,91,0.00,,,0.00,Wunderground v.1.15,2013-01-19 06:20:00,
2013-01-19 01:25:00,20.0,17.8,30.36,N/A,-737280,0.0,-999.0,91,0.00,,,0.00,Wunderground v.1.15,2013-01-19 06:25:00,
2013-01-19 01:30:00,20.0,17.8,30.36,N/A,-737280,0.0,-999.0,91,0.00,,,0.00,Wunderground v.1.15,2013-01-19 06:30:00,
2013-01-19 01:35:00,20.0,17.8,30.36,N/A,-737280,0.0,-999.0,91,0.00,,,0.00,Wunderground v.1.15,2013-01-19 06:35:00,
2013-01-19 01:40:00,20.0,17.8,30.36,N/A,-737280,0.0,-999.0,91,0.00,,,0.00,Wunderground v.1.15,2013-01-19 06:40:00,
2013-01-19 01:45:00,19.7,17.5,30.36,ENE,68,0.0,-999.0,91,0.00,,,0.00,Wunderground v.1.15,2013-01-19 06:45:00,
2013-01-19 01:50:00,19.7,17.5,30.36,ENE,68,0.0,-999.0,91,0.00,,,0.00,Wunderground v.1.15,2013-01-19 06:50:00,
2013-01-19 01:55:00,19.7,17.5,30.36,ENE,68,0.0,-999.0,91,0.00,,,0.00,Wunderground v.1.15,2013-01-19 06:55:00,
2013-01-19 02:00:00,19.7,17.5,30.36,ENE,68,0.0,-999.0,91,0.00,,,0.00,Wunderground v.1.15,2013-01-19 07:00:00,
2013-01-19 02:05:00,19.7,17.5,30.36,ENE,68,0.0,-999.0,91,0.00,,,0.00,Wunderground v.1.15,2013-01-19 07:05:00,
2013-01-19 02:10:00,19.7,17.5,30.36,ENE,68,0.0,-999.0,91,0.00,,,0.00,Wunderground v.1.15,2013-01-19 07:10:00,
2013-01-19 02:15:00,19.5,17.6,30.36,N/A,-737280,0.0,-999.0,92,0.00,,,0.00,Wunderground v.1.15,2013-01-19 07:15:00,
2013-01-19 02:20:00,19.5,17.6,30.36,N/A,-737280,0.0,-999.0,92,0.00,,,0.00,Wunderground v.1.15,2013-01-19 07:20:00,
2013-01-19 02:25:00,19.5,17.6,30.36,N/A,-737280,0.0,-999.0,92,0.00,,,0.00,Wunderground v.1.15,2013-01-19 07:25:00,
2013-01-19 02:30:00,19.5,17.6,30.36,N/A,-737280,0.0,-999.0,92,0.00,,,0.00,Wunderground v.1.15,2013-01-19 07:30:00,
2013-01-19 02:35:00,19.5,17.6,30.36,N/A,-737280,0.0,-999.0,92,0.00,,,0.00,Wunderground v.1.15,2013-01-19 07:35:00,
2013-01-19 02:40:00,19.5,17.6,30.36,N/A,-737280,0.0,-999.0,92,0.00,,,0.00,Wunderground v.1.15,2013-01-19 07:40:00,
2013-01-19 02:45:00,19.3,17.4,30.36,N/A,-737280,0.0,-999.0,92,0.00,,,0.00,Wunderground v.1.15,2013-01-19 07:45:00,
2013-01-19 02:50:00,19.3,17.4,30.36,N/A,-737280,0.0,-999.0,92,0.00,,,0.00,Wunderground v.1.15,2013-01-19 07:50:00,
2013-01-19 02:55:00,19.3,17.4,30.36,N/A,-737280,0.0,-999.0,92,0.00,,,0.00,Wunderground v.1.15,2013-01-19 07:55:00,
2013-01-19 03:00:00,19.3,17.4,30.36,N/A,-737280,0.0,-999.0,92,0.00,,,0.00,Wunderground v.1.15,2013-01-19 08:00:00,
2013-01-19 03:05:00,19.3,17.4,30.36,N/A,-737280,0.0,-999.0,92,0.00,,,0.00,Wunderground v.1.15,2013-01-19 08:05:00,
2013-01-19 03:10:00,19.3,17.4,30.36,N/A,-737280,0.0,-999.0,92,0.00,,,0.00,Wunderground v.1.15,2013-01-19 08:10:00,
2013-01-19 03:15:00,19.2,17.5,30.35,N/A,-737280,0.0,-999.0,93,0.00,,,0.00,Wunderground v.1.15,2013-01-19 08:15:00,
2013-01-19 03:20:00,19.2,17.5,30.35,N/A,-737280,0.0,-999.0,93,0.00,,,0.00,Wunderground v.1.15,2013-01-19 08:20:00,
2013-01-19 03:25:00,19.2,17.5,30.35,N/A,-737280,0.0,-999.0,93,0.00,,,0.00,Wunderground v.1.15,2013-01-19 08:25:00,
2013-01-19 03:30:00,19.2,17.5,30.35,N/A,-737280,0.0,-999.0,93,0.00,,,0.00,Wunderground v.1.15,2013-01-19 08:30:00,
2013-01-19 03:35:00,19.2,17.5,30.35,N/A,-737280,0.0,-999.0,93,0.00,,,0.00,Wunderground v.1.15,2013-01-19 08:35:00,
2013-01-19 03:40:00,19.2,17.5,30.35,N/A,-737280,0.0,-999.0,93,0.00,,,0.00,Wunderground v.1.15,2013-01-19 08:40:00,
2013-01-19 03:45:00,18.9,17.2,30.34,N/A,-737280,0.0,-999.0,93,0.00,,,0.00,Wunderground v.1.15,2013-01-19 08:45:00,
2013-01-19 03:50:00,18.9,17.2,30.34,N/A,-737280,0.0,-999.0,93,0.00,,,0.00,Wunderground v.1.15,2013-01-19 08:50:00,
2013-01-19 03:55:00,18.9,17.2,30.34,N/A,-737280,0.0,-999.0,93,0.00,,,0.00,Wunderground v.1.15,2013-01-19 08:55:00,
2013-01-19 04:00:00,18.9,17.2,30.34,N/A,-737280,0.0,-999.0,93,0.00,,,0.00,Wunderground v.1.15,2013-01-19 09:00:00,
2013-01-19 04:05:00,18.9,17.2,30.34,N/A,-737280,0.0,-999.0,93,0.00,,,0.00,Wunderground v.1.15,2013-01-19 09:05:00,
2013-01-19 04:10:00,18.9,17.2,30.34,N/A,-737280,0.0,-999.0,93,0.00,,,0.00,Wunderground v.1.15,2013-01-19 09:10:00,
2013-01-19 04:15:00,18.8,17.1,30.33,N/A,-737280,0.0,-999.0,93,0.00,,,0.00,Wunderground v.1.15,2013-01-19 09:15:00,
2013-01-19 04:20:00,18.8,17.1,30.33,N/A,-737280,0.0,-999.0,93,0.00,,,0.00,Wunderground v.1.15,2013-01-19 09:20:00,
2013-01-19 04:25:00,18.8,17.1,30.33,N/A,-737280,0.0,-999.0,93,0.00,,,0.00,Wunderground v.1.15,2013-01-19 09:25:00,
2013-01-19 04:30:00,18.8,17.1,30.33,N/A,-737280,0.0,-999.0,93,0.00,,,0.00,Wunderground v.1.15,2013-01-19 09:30:00,
2013-01-19 04:35:00,18.8,17.1,30.33,N/A,-737280,0.0,-999.0,93,0.00,,,0.00,Wunderground v.1.15,2013-01-19 09:35:00,
2013-01-19 04:40:00,18.8,17.1,30.33,N/A,-737280,0.0,-999.0,93,0.00,,,0.00,Wunderground v.1.15,2013-01-19 09:40:00,
2013-01-19 04:45:00,18.7,17.0,30.33,N/A,-737280,0.0,-999.0,93,0.00,,,0.00,Wunderground v.1.15,2013-01-19 09:45:00,
2013-01-19 04:50:00,18.7,17.0,30.33,N/A,-737280,0.0,-999.0,93,0.00,,,0.00,Wunderground v.1.15,2013-01-19 09:50:00,
2013-01-19 04:55:00,18.7,17.0,30.33,N/A,-737280,0.0,-999.0,93,0.00,,,0.00,Wunderground v.1.15,2013-01-19 09:55:00,
2013-01-19 05:00:00,18.7,17.0,30.33,N/A,-737280,0.0,-999.0,93,0.00,,,0.00,Wunderground v.1.15,2013-01-19 10:00:00,
2013-01-19 05:05:00,18.7,17.0,30.33,N/A,-737280,0.0,-999.0,93,0.00,,,0.00,Wunderground v.1.15,2013-01-19 10:05:00,
2013-01-19 05:10:00,18.7,17.0,30.33,N/A,-737280,0.0,-999.0,93,0.00,,,0.00,Wunderground v.1.15,2013-01-19 10:10:00,
2013-01-19 05:15:00,18.5,16.8,30.32,N/A,-737280,0.0,-999.0,93,0.00,,,0.00,Wunderground v.1.15,2013-01-19 10:15:00,
2013-01-19 05:20:00,18.5,16.8,30.32,N/A,-737280,0.0,-999.0,93,0.00,,,0.00,Wunderground v.1.15,2013-01-19 10:20:00,
2013-01-19 05:25:00,18.5,16.8,30.32,N/A,-737280,0.0,-999.0,93,0.00,,,0.00,Wunderground v.1.15,2013-01-19 10:25:00,
2013-01-19 05:30:00,18.5,16.8,30.32,N/A,-737280,0.0,-999.0,93,0.00,,,0.00,Wunderground v.1.15,2013-01-19 10:30:00,
2013-01-19 05:35:00,18.5,16.8,30.32,N/A,-737280,0.0,-999.0,93,0.00,,,0.00,Wunderground v.1.15,2013-01-19 10:35:00,
2013-01-19 05:40:00,18.5,16.8,30.32,N/A,-737280,0.0,-999.0,93,0.00,,,0.00,Wunderground v.1.15,2013-01-19 10:40:00,
2013-01-19 05:45:00,18.3,16.6,30.32,N/A,-737280,0.0,-999.0,93,0.00,,,0.00,Wunderground v.1.15,2013-01-19 10:45:00,
2013-01-19 05:50:00,18.3,16.6,30.32,N/A,-737280,0.0,-999.0,93,0.00,,,0.00,Wunderground v.1.15,2013-01-19 10:50:00,
2013-01-19 05:55:00,18.3,16.6,30.32,N/A,-737280,0.0,-999.0,93,0.00,,,0.00,Wunderground v.1.15,2013-01-19 10:55:00,
2013-01-19 06:00:00,18.3,16.6,30.32,N/A,-737280,0.0,-999.0,93,0.00,,,0.00,Wunderground v.1.15,2013-01-19 11:00:00,
2013-01-19 06:05:00,18.3,16.6,30.32,N/A,-737280,0.0,-999.0,93,0.00,,,0.00,Wunderground v.1.15,2013-01-19 11:05:00,
2013-01-19 06:10:00,18.3,16.6,30.32,N/A,-737280,0.0,-999.0,93,0.00,,,0.00,Wunderground v.1.15,2013-01-19 11:10:00,
2013-01-19 06:15:00,18.3,16.6,30.32,N/A,-737280,0.0,-999.0,93,0.00,,,0.00,Wunderground v.1.15,2013-01-19 11:15:00,
2013-01-19 06:20:00,18.3,16.6,30.32,N/A,-737280,0.0,-999.0,93,0.00,,,0.00,Wunderground v.1.15,2013-01-19 11:20:00,
2013-01-19 06:25:00,18.3,16.6,30.32,N/A,-737280,0.0,-999.0,93,0.00,,,0.00,Wunderground v.1.15,2013-01-19 11:25:00,
2013-01-19 06:30:00,18.3,16.6,30.32,N/A,-737280,0.0,-999.0,93,0.00,,,0.00,Wunderground v.1.15,2013-01-19 11:30:00,
2013-01-19 06:35:00,18.3,16.6,30.32,N/A,-737280,0.0,-999.0,93,0.00,,,0.00,Wunderground v.1.15,2013-01-19 11:35:00,
2013-01-19 06:40:00,18.3,16.6,30.32,N/A,-737280,0.0,-999.0,93,0.00,,,0.00,Wunderground v.1.15,2013-01-19 11:40:00,
2013-01-19 06:45:00,18.2,16.5,30.32,N/A,-737280,0.0,-999.0,93,0.00,,,0.00,Wunderground v.1.15,2013-01-19 11:45:00,
2013-01-19 06:50:00,18.2,16.5,30.32,N/A,-737280,0.0,-999.0,93,0.00,,,0.00,Wunderground v.1.15,2013-01-19 11:50:00,
2013-01-19 06:55:00,18.2,16.5,30.32,N/A,-737280,0.0,-999.0,93,0.00,,,0.00,Wunderground v.1.15,2013-01-19 11:55:00,
2013-01-19 07:00:00,18.2,16.5,30.32,N/A,-737280,0.0,-999.0,93,0.00,,,0.00,Wunderground v.1.15,2013-01-19 12:00:00,
2013-01-19 07:05:00,18.2,16.5,30.32,N/A,-737280,0.0,-999.0,93,0.00,,,0.00,Wunderground v.1.15,2013-01-19 12:05:00,
2013-01-19 07:10:00,18.2,16.5,30.32,N/A,-737280,0.0,-999.0,93,0.00,,,0.00,Wunderground v.1.15,2013-01-19 12:10:00,
2013-01-19 07:15:00,17.9,16.2,30.31,N/A,-737280,0.0,-999.0,93,0.00,,,0.00,Wunderground v.1.15,2013-01-19 12:15:00,
2013-01-19 07:20:00,17.9,16.2,30.31,N/A,-737280,0.0,-999.0,93,0.00,,,0.00,Wunderground v.1.15,2013-01-19 12:20:00,
2013-01-19 07:25:00,17.9,16.2,30.31,N/A,-737280,0.0,-999.0,93,0.00,,,0.00,Wunderground v.1.15,2013-01-19 12:25:00,
2013-01-19 07:30:00,17.9,16.2,30.31,N/A,-737280,0.0,-999.0,93,0.00,,,0.00,Wunderground v.1.15,2013-01-19 12:30:00,
2013-01-19 07:35:00,17.9,16.2,30.31,N/A,-737280,0.0,-999.0,93,0.00,,,0.00,Wunderground v.1.15,2013-01-19 12:35:00,
2013-01-19 07:40:00,17.9,16.2,30.31,N/A,-737280,0.0,-999.0,93,0.00,,,0.00,Wunderground v.1.15,2013-01-19 12:40:00,
2013-01-19 07:45:00,18.1,16.4,30.31,N/A,-737280,0.0,-999.0,93,0.00,,,0.00,Wunderground v.1.15,2013-01-19 12:45:00,
2013-01-19 07:50:00,18.1,16.4,30.31,N/A,-737280,0.0,-999.0,93,0.00,,,0.00,Wunderground v.1.15,2013-01-19 12:50:00,
2013-01-19 07:55:00,18.1,16.4,30.31,N/A,-737280,0.0,-999.0,93,0.00,,,0.00,Wunderground v.1.15,2013-01-19 12:55:00,
2013-01-19 08:00:00,18.1,16.4,30.31,N/A,-737280,0.0,-999.0,93,0.00,,,0.00,Wunderground v.1.15,2013-01-19 13:00:00,
2013-01-19 08:05:00,18.1,16.4,30.31,N/A,-737280,0.0,-999.0,93,0.00,,,0.00,Wunderground v.1.15,2013-01-19 13:05:00,
2013-01-19 08:10:00,18.1,16.4,30.31,N/A,-737280,0.0,-999.0,93,0.00,,,0.00,Wunderground v.1.15,2013-01-19 13:10:00,
2013-01-19 08:15:00,18.6,16.9,30.31,N/A,-737280,0.0,-999.0,93,0.00,,,0.00,Wunderground v.1.15,2013-01-19 13:15:00,
2013-01-19 08:20:00,18.6,16.9,30.31,N/A,-737280,0.0,-999.0,93,0.00,,,0.00,Wunderground v.1.15,2013-01-19 13:20:00,
2013-01-19 08:25:00,18.6,16.9,30.31,N/A,-737280,0.0,-999.0,93,0.00,,,0.00,Wunderground v.1.15,2013-01-19 13:25:00,
2013-01-19 08:30:00,18.6,16.9,30.31,N/A,-737280,0.0,-999.0,93,0.00,,,0.00,Wunderground v.1.15,2013-01-19 13:30:00,
2013-01-19 08:35:00,18.6,16.9,30.31,N/A,-737280,0.0,-999.0,93,0.00,,,0.00,Wunderground v.1.15,2013-01-19 13:35:00,
2013-01-19 08:40:00,18.6,16.9,30.31,N/A,-737280,0.0,-999.0,93,0.00,,,0.00,Wunderground v.1.15,2013-01-19 13:40:00,
2013-01-19 08:45:00,21.1,19.6,30.31,ENE,68,0.0,-999.0,94,0.00,,,0.00,Wunderground v.1.15,2013-01-19 13:45:00,
2013-01-19 08:50:00,21.1,19.6,30.31,ENE,68,0.0,-999.0,94,0.00,,,0.00,Wunderground v.1.15,2013-01-19 13:50:00,
2013-01-19 08:55:00,21.1,19.6,30.31,ENE,68,0.0,-999.0,94,0.00,,,0.00,Wunderground v.1.15,2013-01-19 13:55:00,
2013-01-19 09:00:00,21.1,19.6,30.31,ENE,68,0.0,-999.0,94,0.00,,,0.00,Wunderground v.1.15,2013-01-19 14:00:00,
2013-01-19 09:05:00,21.1,19.6,30.31,ENE,68,0.0,-999.0,94,0.00,,,0.00,Wunderground v.1.15,2013-01-19 14:05:00,
2013-01-19 09:10:00,21.1,19.6,30.31,ENE,68,0.0,-999.0,94,0.00,,,0.00,Wunderground v.1.15,2013-01-19 14:10:00,
2013-01-19 09:15:00,24.9,22.6,30.31,ESE,113,0.0,-999.0,91,0.00,,,0.00,Wunderground v.1.15,2013-01-19 14:15:00,
2013-01-19 09:20:00,24.9,22.6,30.31,ESE,113,0.0,-999.0,91,0.00,,,0.00,Wunderground v.1.15,2013-01-19 14:20:00,
2013-01-19 09:25:00,24.9,22.6,30.31,ESE,113,0.0,-999.0,91,0.00,,,0.00,Wunderground v.1.15,2013-01-19 14:25:00,
2013-01-19 09:30:00,24.9,22.6,30.31,ESE,113,0.0,-999.0,91,0.00,,,0.00,Wunderground v.1.15,2013-01-19 14:30:00,
2013-01-19 09:35:00,24.9,22.6,30.31,ESE,113,0.0,-999.0,91,0.00,,,0.00,Wunderground v.1.15,2013-01-19 14:35:00,
2013-01-19 09:40:00,24.9,22.6,30.31,ESE,113,0.0,-999.0,91,0.00,,,0.00,Wunderground v.1.15,2013-01-19 14:40:00,
2013-01-19 09:45:00,28.7,25.9,30.31,ESE,113,0.0,-999.0,89,0.00,,,0.00,Wunderground v.1.15,2013-01-19 14:45:00,
2013-01-19 09:50:00,28.7,25.9,30.31,ESE,113,0.0,-999.0,89,0.00,,,0.00,Wunderground v.1.15,2013-01-19 14:50:00,
2013-01-19 09:55:00,28.7,25.9,30.31,ESE,113,0.0,-999.0,89,0.00,,,0.00,Wunderground v.1.15,2013-01-19 14:55:00,
2013-01-19 10:00:00,28.7,25.9,30.31,ESE,113,0.0,-999.0,89,0.00,,,0.00,Wunderground v.1.15,2013-01-19 15:00:00,
2013-01-19 10:05:00,28.7,25.9,30.31,ESE,113,0.0,-999.0,89,0.00,,,0.00,Wunderground v.1.15,2013-01-19 15:05:00,
2013-01-19 10:10:00,28.7,25.9,30.31,ESE,113,0.0,-999.0,89,0.00,,,0.00,Wunderground v.1.15,2013-01-19 15:10:00,
2013-01-19 10:15:00,33.9,29.3,30.30,SSE,158,0.0,-999.0,83,0.00,,,0.00,Wunderground v.1.15,2013-01-19 15:15:00,
2013-01-19 10:20:00,33.9,29.3,30.30,SSE,158,0.0,-999.0,83,0.00,,,0.00,Wunderground v.1.15,2013-01-19 15:20:00,
2013-01-19 10:25:00,33.9,29.3,30.30,SSE,158,0.0,-999.0,83,0.00,,,0.00,Wunderground v.1.15,2013-01-19 15:25:00,
2013-01-19 10:30:00,33.9,29.3,30.30,SSE,158,0.0,-999.0,83,0.00,,,0.00,Wunderground v.1.15,2013-01-19 15:30:00,
2013-01-19 10:35:00,33.9,29.3,30.30,SSE,158,0.0,-999.0,83,0.00,,,0.00,Wunderground v.1.15,2013-01-19 15:35:00,
2013-01-19 10:40:00,33.9,29.3,30.30,SSE,158,0.0,-999.0,83,0.00,,,0.00,Wunderground v.1.15,2013-01-19 15:40:00,
2013-01-19 10:45:00,42.1,33.7,30.29,ESE,113,1.0,-999.0,72,0.00,,,0.00,Wunderground v.1.15,2013-01-19 15:45:00,
2013-01-19 10:50:00,39.3,31.7,30.30,SSE,163,1.0,1.0,74,0.00,,,0.00,Wunderground v.1.15,2013-01-19 15:50:00,
2013-01-19 10:55:00,40.9,31.1,30.29,ENE,58,1.0,1.0,68,0.00,,,0.00,Wunderground v.1.15,2013-01-19 15:55:00,
2013-01-19 11:00:00,42.2,33.8,30.29,SSW,193,1.0,1.0,72,0.00,,,0.00,Wunderground v.1.15,2013-01-19 16:00:00,
2013-01-19 11:05:00,42.1,33.7,30.29,ESE,113,1.0,-999.0,72,0.00,,,0.00,Wunderground v.1.15,2013-01-19 16:05:00,
2013-01-19 11:10:00,46.9,25.0,30.28,East,84,3.0,4.0,42,0.00,,,0.00,Wunderground v.1.15,2013-01-19 16:10:00,
2013-01-19 11:15:00,51.9,18.9,30.26,ENE,68,4.0,-999.0,27,0.00,,,0.00,Wunderground v.1.15,2013-01-19 16:15:00,
2013-01-19 11:20:00,51.9,18.9,30.26,ENE,68,4.0,-999.0,27,0.00,,,0.00,Wunderground v.1.15,2013-01-19 16:20:00,
2013-01-19 11:25:00,51.9,18.9,30.26,ENE,68,4.0,-999.0,27,0.00,,,0.00,Wunderground v.1.15,2013-01-19 16:25:00,
2013-01-19 11:30:00,51.9,18.9,30.26,ENE,68,4.0,-999.0,27,0.00,,,0.00,Wunderground v.1.15,2013-01-19 16:30:00,
2013-01-19 11:35:00,52.3,22.5,30.25,ENE,60,5.0,5.0,31,0.00,,,0.00,Wunderground v.1.15,2013-01-19 16:35:00,
2013-01-19 11:40:00,52.7,19.6,30.25,ESE,113,4.0,5.0,27,0.00,,,0.00,Wunderground v.1.15,2013-01-19 16:40:00,
2013-01-19 11:45:00,53.0,19.0,30.24,SSW,204,4.0,4.0,26,0.00,,,0.00,Wunderground v.1.15,2013-01-19 16:45:00,
2013-01-19 11:50:00,53.7,18.7,30.23,ESE,113,4.0,-999.0,25,0.00,,,0.00,Wunderground v.1.15,2013-01-19 16:50:00,
2013-01-19 11:55:00,53.7,18.7,30.23,ESE,113,4.0,-999.0,25,0.00,,,0.00,Wunderground v.1.15,2013-01-19 16:55:00,
2013-01-19 12:00:00,53.7,19.6,30.23,East,84,3.0,3.0,26,0.00,,,0.00,Wunderground v.1.15,2013-01-19 17:00:00,
2013-01-19 12:05:00,53.7,18.7,30.23,ESE,113,4.0,-999.0,25,0.00,,,0.00,Wunderground v.1.15,2013-01-19 17:05:00,
2013-01-19 12:10:00,53.7,18.7,30.23,ESE,113,4.0,-999.0,25,0.00,,,0.00,Wunderground v.1.15,2013-01-19 17:10:00,
2013-01-19 12:15:00,54.1,19.0,30.22,NE,53,4.0,6.0,25,0.00,,,0.00,Wunderground v.1.15,2013-01-19 17:15:00,
2013-01-19 12:20:00,54.4,18.3,30.21,East,100,4.0,4.0,24,0.00,,,0.00,Wunderground v.1.15,2013-01-19 17:20:00,
2013-01-19 12:25:00,54.5,19.3,30.21,SSW,192,5.0,5.0,25,0.00,,,0.00,Wunderground v.1.15,2013-01-19 17:25:00,
2013-01-19 12:30:00,54.6,18.5,30.20,ENE,68,4.0,-999.0,24,0.00,,,0.00,Wunderground v.1.15,2013-01-19 17:30:00,
2013-01-19 12:35:00,54.8,18.6,30.20,ESE,123,4.0,5.0,24,0.00,,,0.00,Wunderground v.1.15,2013-01-19 17:35:00,
2013-01-19 12:40:00,54.6,18.5,30.20,ENE,68,4.0,-999.0,24,0.00,,,0.00,Wunderground v.1.15,2013-01-19 17:40:00,
2013-01-19 12:45:00,55.1,18.9,30.19,ESE,113,4.0,7.0,24,0.00,,,0.00,Wunderground v.1.15,2013-01-19 17:45:00,
2013-01-19 12:50:00,55.5,19.2,30.18,ENE,68,4.0,-999.0,24,0.00,,,0.00,Wunderground v.1.15,2013-01-19 17:50:00,
2013-01-19 12:55:00,55.3,18.1,30.18,SSE,149,4.0,4.0,23,0.00,,,0.00,Wunderground v.1.15,2013-01-19 17:55:00,
2013-01-19 13:00:00,55.5,19.2,30.18,ENE,68,4.0,-999.0,24,0.00,,,0.00,Wunderground v.1.15,2013-01-19 18:00:00,
2013-01-19 13:05:00,55.5,19.2,30.18,ENE,68,4.0,-999.0,24,0.00,,,0.00,Wunderground v.1.15,2013-01-19 18:05:00,
2013-01-19 13:10:00,55.5,19.2,30.18,ENE,68,4.0,-999.0,24,0.00,,,0.00,Wunderground v.1.15,2013-01-19 18:10:00,
2013-01-19 13:15:00,57.0,18.5,30.16,NE,45,3.0,-999.0,22,0.00,,,0.00,Wunderground v.1.15,2013-01-19 18:15:00,
2013-01-19 13:20:00,57.0,18.5,30.16,NE,45,3.0,-999.0,22,0.00,,,0.00,Wunderground v.1.15,2013-01-19 18:20:00,
2013-01-19 13:25:00,57.0,18.5,30.16,NE,45,3.0,-999.0,22,0.00,,,0.00,Wunderground v.1.15,2013-01-19 18:25:00,
2013-01-19 13:30:00,57.0,18.5,30.16,NE,45,3.0,-999.0,22,0.00,,,0.00,Wunderground v.1.15,2013-01-19 18:30:00,
2013-01-19 13:35:00,57.0,18.5,30.16,NE,45,3.0,-999.0,22,0.00,,,0.00,Wunderground v.1.15,2013-01-19 18:35:00,
2013-01-19 13:40:00,57.0,18.5,30.16,NE,45,3.0,-999.0,22,0.00,,,0.00,Wunderground v.1.15,2013-01-19 18:40:00,
2013-01-19 13:45:00,57.4,18.8,30.14,SE,135,4.0,-999.0,22,0.00,,,0.00,Wunderground v.1.15,2013-01-19 18:45:00,
2013-01-19 13:50:00,57.4,18.8,30.14,SE,135,4.0,-999.0,22,0.00,,,0.00,Wunderground v.1.15,2013-01-19 18:50:00,
2013-01-19 13:55:00,57.4,18.8,30.14,SE,135,4.0,-999.0,22,0.00,,,0.00,Wunderground v.1.15,2013-01-19 18:55:00,
2013-01-19 14:00:00,57.4,18.8,30.14,SE,135,4.0,-999.0,22,0.00,,,0.00,Wunderground v.1.15,2013-01-19 19:00:00,
2013-01-19 14:05:00,57.6,19.0,30.13,SSE,153,3.0,7.0,22,0.00,,,0.00,Wunderground v.1.15,2013-01-19 19:05:00,
2013-01-19 14:10:00,57.8,19.1,30.13,NNE,26,3.0,5.0,22,0.00,,,0.00,Wunderground v.1.15,2013-01-19 19:10:00,
2013-01-19 14:15:00,58.2,17.3,30.12,SE,135,4.0,-999.0,20,0.00,,,0.00,Wunderground v.1.15,2013-01-19 19:15:00,
2013-01-19 14:20:00,58.1,19.4,30.12,South,188,4.0,8.0,22,0.00,,,0.00,Wunderground v.1.15,2013-01-19 19:20:00,
2013-01-19 14:25:00,58.2,17.3,30.12,SE,143,4.0,8.0,20,0.00,,,0.00,Wunderground v.1.15,2013-01-19 19:25:00,
2013-01-19 14:30:00,58.2,17.3,30.12,SE,135,4.0,-999.0,20,0.00,,,0.00,Wunderground v.1.15,2013-01-19 19:30:00,
2013-01-19 14:35:00,58.2,17.3,30.12,SE,135,4.0,-999.0,20,0.00,,,0.00,Wunderground v.1.15,2013-01-19 19:35:00,
2013-01-19 14:40:00,58.2,17.3,30.12,SE,135,4.0,-999.0,20,0.00,,,0.00,Wunderground v.1.15,2013-01-19 19:40:00,
2013-01-19 14:45:00,58.8,17.8,30.10,ENE,58,3.0,6.0,20,0.00,,,0.00,Wunderground v.1.15,2013-01-19 19:45:00,
2013-01-19 14:50:00,58.9,19.0,30.10,SE,135,3.0,-999.0,21,0.00,,,0.00,Wunderground v.1.15,2013-01-19 19:50:00,
2013-01-19 14:55:00,58.8,16.6,30.10,ESE,113,3.0,4.0,19,0.00,,,0.00,Wunderground v.1.15,2013-01-19 19:55:00,
2013-01-19 15:00:00,58.9,19.0,30.10,SE,135,3.0,-999.0,21,0.00,,,0.00,Wunderground v.1.15,2013-01-19 20:00:00,
2013-01-19 15:05:00,58.8,16.6,30.10,ESE,116,3.0,9.0,19,0.00,,,0.00,Wunderground v.1.15,2013-01-19 20:05:00,
2013-01-19 15:10:00,58.9,19.0,30.10,SE,135,3.0,-999.0,21,0.00,,,0.00,Wunderground v.1.15,2013-01-19 20:10:00,
2013-01-19 15:15:00,58.6,17.6,30.09,ESE,122,4.0,4.0,20,0.00,,,0.00,Wunderground v.1.15,2013-01-19 20:15:00,
2013-01-19 15:20:00,58.7,16.5,30.09,SE,135,3.0,-999.0,19,0.00,,,0.00,Wunderground v.1.15,2013-01-19 20:20:00,
2013-01-19 15:25:00,58.8,17.8,30.09,SE,136,3.0,4.0,20,0.00,,,0.00,Wunderground v.1.15,2013-01-19 20:25:00,
2013-01-19 15:30:00,58.7,16.5,30.09,SE,135,3.0,-999.0,19,0.00,,,0.00,Wunderground v.1.15,2013-01-19 20:30:00,
2013-01-19 15:35:00,58.5,17.5,30.08,NE,55,3.0,6.0,20,0.00,,,0.00,Wunderground v.1.15,2013-01-19 20:35:00,
2013-01-19 15:40:00,58.5,17.5,30.08,ESE,120,3.0,7.0,20,0.00,,,0.00,Wunderground v.1.15,2013-01-19 20:40:00,
2013-01-19 15:45:00,57.6,17.9,30.08,ENE,68,3.0,-999.0,21,0.00,,,0.00,Wunderground v.1.15,2013-01-19 20:45:00,
2013-01-19 15:50:00,58.0,18.2,30.08,ENE,65,4.0,4.0,21,0.00,,,0.00,Wunderground v.1.15,2013-01-19 20:50:00,
2013-01-19 15:55:00,57.8,20.2,30.08,West,267,3.0,4.0,23,0.00,,,0.00,Wunderground v.1.15,2013-01-19 20:55:00,
2013-01-19 16:00:00,57.6,17.9,30.08,ENE,68,3.0,-999.0,21,0.00,,,0.00,Wunderground v.1.15,2013-01-19 21:00:00,
2013-01-19 16:05:00,57.6,17.9,30.08,ENE,68,3.0,-999.0,21,0.00,,,0.00,Wunderground v.1.15,2013-01-19 21:05:00,
2013-01-19 16:15:00,57.1,19.6,30.07,East,84,2.0,2.0,23,0.00,,,0.00,Wunderground v.1.15,2013-01-19 21:15:00,
2013-01-19 16:25:00,56.9,19.4,30.07,SE,128,2.0,2.0,23,0.00,,,0.00,Wunderground v.1.15,2013-01-19 21:25:00,
2013-01-19 16:45:00,54.3,20.1,30.06,ESE,115,1.0,1.0,26,0.00,,,0.00,Wunderground v.1.15,2013-01-19 21:45:00,
2013-01-19 16:55:00,52.8,21.4,30.06,South,172,1.0,3.0,29,0.00,,,0.00,Wunderground v.1.15,2013-01-19 21:55:00,
2013-01-19 17:00:00,52.0,20.7,30.06,SW,217,0.0,0.0,29,0.00,,,0.00,Wunderground v.1.15,2013-01-19 22:00:00,
2013-01-19 17:10:00,49.9,20.4,30.06,WNW,284,0.0,0.0,31,0.00,,,0.00,Wunderground v.1.15,2013-01-19 22:10:00,
2013-01-19 17:20:00,48.3,21.9,30.05,WNW,284,0.0,0.0,35,0.00,,,0.00,Wunderground v.1.15,2013-01-19 22:20:00,
2013-01-19 17:25:00,47.5,20.5,30.05,WNW,284,0.0,0.0,34,0.00,,,0.00,Wunderground v.1.15,2013-01-19 22:25:00,
2013-01-19 17:35:00,46.1,21.2,30.05,WNW,284,0.0,0.0,37,0.00,,,0.00,Wunderground v.1.15,2013-01-19 22:35:00,
2013-01-19 17:40:00,45.5,23.1,30.05,WNW,284,0.0,0.0,41,0.00,,,0.00,Wunderground v.1.15,2013-01-19 22:40:00,
2013-01-19 17:45:00,44.9,22.0,30.05,WNW,284,0.0,0.0,40,0.00,,,0.00,Wunderground v.1.15,2013-01-19 22:45:00,
2013-01-19 17:55:00,43.7,22.6,30.05,WNW,284,0.0,0.0,43,0.00,,,0.00,Wunderground v.1.15,2013-01-19 22:55:00,
2013-01-19 18:00:00,43.0,22.0,30.05,WNW,284,0.0,0.0,43,0.00,,,0.00,Wunderground v.1.15,2013-01-19 23:00:00,
2013-01-19 18:10:00,42.0,23.7,30.04,WNW,284,0.0,0.0,48,0.00,,,0.00,Wunderground v.1.15,2013-01-19 23:10:00,
2013-01-19 18:20:00,41.0,23.3,30.05,WNW,284,0.0,0.0,49,0.00,,,0.00,Wunderground v.1.15,2013-01-19 23:20:00,
2013-01-19 18:25:00,40.6,23.9,30.04,WNW,284,0.0,0.0,51,0.00,,,0.00,Wunderground v.1.15,2013-01-19 23:25:00,
2013-01-19 18:30:00,40.1,23.4,30.04,WNW,284,0.0,0.0,51,0.00,,,0.00,Wunderground v.1.15,2013-01-19 23:30:00,
2013-01-19 18:40:00,39.0,23.7,30.05,WNW,284,0.0,0.0,54,0.00,,,0.00,Wunderground v.1.15,2013-01-19 23:40:00,
2013-01-19 18:50:00,38.2,24.3,30.04,SE,129,0.0,0.0,57,0.00,,,0.00,Wunderground v.1.15,2013-01-19 23:50:00,
2013-01-19 18:55:00,37.8,25.5,30.04,SE,129,0.0,0.0,61,0.00,,,0.00,Wunderground v.1.15,2013-01-19 23:55:00,
2013-01-19 19:05:00,36.9,25.9,30.04,SE,129,0.0,0.0,64,0.00,,,0.00,Wunderground v.1.15,2013-01-20 00:05:00,
2013-01-19 19:10:00,36.5,25.5,30.04,SE,129,0.0,0.0,64,0.00,,,0.00,Wunderground v.1.15,2013-01-20 00:10:00,
2013-01-19 19:20:00,35.8,24.8,30.04,SE,129,0.0,0.0,64,0.00,,,0.00,Wunderground v.1.15,2013-01-20 00:20:00,
2013-01-19 19:25:00,35.3,24.7,30.04,SE,128,0.0,0.0,65,0.00,,,0.00,Wunderground v.1.15,2013-01-20 00:25:00,
2013-01-19 19:30:00,34.9,24.7,30.04,SE,135,0.0,-999.0,66,0.00,,,0.00,Wunderground v.1.15,2013-01-20 00:30:00,
2013-01-19 19:35:00,34.6,25.8,30.04,SE,129,0.0,0.0,70,0.00,,,0.00,Wunderground v.1.15,2013-01-20 00:35:00,
2013-01-19 19:40:00,34.9,24.7,30.04,SE,135,0.0,-999.0,66,0.00,,,0.00,Wunderground v.1.15,2013-01-20 00:40:00,
2013-01-19 19:45:00,33.2,24.8,30.03,SE,135,0.0,-999.0,71,0.00,,,0.00,Wunderground v.1.15,2013-01-20 00:45:00,
2013-01-19 19:50:00,33.2,24.8,30.03,SE,135,0.0,-999.0,71,0.00,,,0.00,Wunderground v.1.15,2013-01-20 00:50:00,
2013-01-19 19:55:00,33.2,24.8,30.03,SE,135,0.0,-999.0,71,0.00,,,0.00,Wunderground v.1.15,2013-01-20 00:55:00,
2013-01-19 20:00:00,33.2,24.8,30.03,SE,135,0.0,-999.0,71,0.00,,,0.00,Wunderground v.1.15,2013-01-20 01:00:00,
2013-01-19 20:05:00,33.2,24.8,30.03,SE,135,0.0,-999.0,71,0.00,,,0.00,Wunderground v.1.15,2013-01-20 01:05:00,
2013-01-19 20:10:00,33.2,24.8,30.03,SE,135,0.0,-999.0,71,0.00,,,0.00,Wunderground v.1.15,2013-01-20 01:10:00,
2013-01-19 20:15:00,31.8,24.8,30.03,SE,135,0.0,-999.0,75,0.00,,,0.00,Wunderground v.1.15,2013-01-20 01:15:00,
2013-01-19 20:20:00,31.8,24.8,30.03,SE,135,0.0,-999.0,75,0.00,,,0.00,Wunderground v.1.15,2013-01-20 01:20:00,
2013-01-19 20:25:00,31.8,24.8,30.03,SE,135,0.0,-999.0,75,0.00,,,0.00,Wunderground v.1.15,2013-01-20 01:25:00,
2013-01-19 20:30:00,31.8,24.8,30.03,SE,135,0.0,-999.0,75,0.00,,,0.00,Wunderground v.1.15,2013-01-20 01:30:00,
2013-01-19 20:35:00,31.8,24.8,30.03,SE,135,0.0,-999.0,75,0.00,,,0.00,Wunderground v.1.15,2013-01-20 01:35:00,
2013-01-19 20:40:00,31.8,24.8,30.03,SE,135,0.0,-999.0,75,0.00,,,0.00,Wunderground v.1.15,2013-01-20 01:40:00,
2013-01-19 20:45:00,30.2,24.2,30.01,N/A,-737280,0.0,-999.0,78,0.00,,,0.00,Wunderground v.1.15,2013-01-20 01:45:00,
2013-01-19 20:50:00,30.2,24.2,30.01,N/A,-737280,0.0,-999.0,78,0.00,,,0.00,Wunderground v.1.15,2013-01-20 01:50:00,
2013-01-19 20:55:00,30.2,24.2,30.01,N/A,-737280,0.0,-999.0,78,0.00,,,0.00,Wunderground v.1.15,2013-01-20 01:55:00,
2013-01-19 21:00:00,30.2,24.2,30.01,N/A,-737280,0.0,-999.0,78,0.00,,,0.00,Wunderground v.1.15,2013-01-20 02:00:00,
2013-01-19 21:05:00,30.2,24.2,30.01,N/A,-737280,0.0,-999.0,78,0.00,,,0.00,Wunderground v.1.15,2013-01-20 02:05:00,
2013-01-19 21:10:00,30.2,24.2,30.01,N/A,-737280,0.0,-999.0,78,0.00,,,0.00,Wunderground v.1.15,2013-01-20 02:10:00,
2013-01-19 21:15:00,29.3,23.6,30.01,N/A,-737280,0.0,-999.0,79,0.00,,,0.00,Wunderground v.1.15,2013-01-20 02:15:00,
2013-01-19 21:20:00,29.3,23.6,30.01,N/A,-737280,0.0,-999.0,79,0.00,,,0.00,Wunderground v.1.15,2013-01-20 02:20:00,
2013-01-19 21:25:00,29.3,23.6,30.01,N/A,-737280,0.0,-999.0,79,0.00,,,0.00,Wunderground v.1.15,2013-01-20 02:25:00,
2013-01-19 21:30:00,29.3,23.6,30.01,N/A,-737280,0.0,-999.0,79,0.00,,,0.00,Wunderground v.1.15,2013-01-20 02:30:00,
2013-01-19 21:35:00,29.3,23.6,30.01,N/A,-737280,0.0,-999.0,79,0.00,,,0.00,Wunderground v.1.15,2013-01-20 02:35:00,
2013-01-19 21:40:00,29.3,23.6,30.01,N/A,-737280,0.0,-999.0,79,0.00,,,0.00,Wunderground v.1.15,2013-01-20 02:40:00,
2013-01-19 21:45:00,28.7,23.9,30.00,SE,135,0.0,-999.0,82,0.00,,,0.00,Wunderground v.1.15,2013-01-20 02:45:00,
2013-01-19 21:50:00,28.7,23.9,30.00,SE,135,0.0,-999.0,82,0.00,,,0.00,Wunderground v.1.15,2013-01-20 02:50:00,
2013-01-19 21:55:00,28.7,23.9,30.00,SE,135,0.0,-999.0,82,0.00,,,0.00,Wunderground v.1.15,2013-01-20 02:55:00,
2013-01-19 22:00:00,28.7,23.9,30.00,SE,135,0.0,-999.0,82,0.00,,,0.00,Wunderground v.1.15,2013-01-20 03:00:00,
2013-01-19 22:05:00,28.7,23.9,30.00,SE,135,0.0,-999.0,82,0.00,,,0.00,Wunderground v.1.15,2013-01-20 03:05:00,
2013-01-19 22:10:00,28.7,23.9,30.00,SE,135,0.0,-999.0,82,0.00,,,0.00,Wunderground v.1.15,2013-01-20 03:10:00,
2013-01-19 22:15:00,28.5,23.7,29.99,SE,135,0.0,-999.0,82,0.00,,,0.00,Wunderground v.1.15,2013-01-20 03:15:00,
2013-01-19 22:20:00,28.5,23.7,29.99,SE,135,0.0,-999.0,82,0.00,,,0.00,Wunderground v.1.15,2013-01-20 03:20:00,
2013-01-19 22:25:00,28.5,23.7,29.99,SE,135,0.0,-999.0,82,0.00,,,0.00,Wunderground v.1.15,2013-01-20 03:25:00,
2013-01-19 22:30:00,28.5,23.7,29.99,SE,135,0.0,-999.0,82,0.00,,,0.00,Wunderground v.1.15,2013-01-20 03:30:00,
2013-01-19 22:35:00,28.5,23.7,29.99,SE,135,0.0,-999.0,82,0.00,,,0.00,Wunderground v.1.15,2013-01-20 03:35:00,
2013-01-19 22:40:00,28.5,23.7,29.99,SE,135,0.0,-999.0,82,0.00,,,0.00,Wunderground v.1.15,2013-01-20 03:40:00,
2013-01-19 22:45:00,28.9,24.4,29.97,SW,225,0.0,-999.0,83,0.00,,,0.00,Wunderground v.1.15,2013-01-20 03:45:00,
2013-01-19 22:50:00,28.9,24.4,29.97,SW,225,0.0,-999.0,83,0.00,,,0.00,Wunderground v.1.15,2013-01-20 03:50:00,
2013-01-19 22:55:00,28.9,24.4,29.97,SW,225,0.0,-999.0,83,0.00,,,0.00,Wunderground v.1.15,2013-01-20 03:55:00,
2013-01-19 23:00:00,28.9,24.4,29.97,SW,225,0.0,-999.0,83,0.00,,,0.00,Wunderground v.1.15,2013-01-20 04:00:00,
2013-01-19 23:05:00,28.9,24.4,29.97,SW,225,0.0,-999.0,83,0.00,,,0.00,Wunderground v.1.15,2013-01-20 04:05:00,
2013-01-19 23:10:00,28.9,24.4,29.97,SW,225,0.0,-999.0,83,0.00,,,0.00,Wunderground v.1.15,2013-01-20 04:10:00,
2013-01-19 23:15:00,29.9,25.1,29.95,East,90,0.0,-999.0,82,0.00,,,0.00,Wunderground v.1.15,2013-01-20 04:15:00,
2013-01-19 23:20:00,29.9,25.1,29.95,East,90,0.0,-999.0,82,0.00,,,0.00,Wunderground v.1.15,2013-01-20 04:20:00,
2013-01-19 23:25:00,29.9,25.1,29.95,East,90,0.0,-999.0,82,0.00,,,0.00,Wunderground v.1.15,2013-01-20 04:25:00,
2013-01-19 23:30:00,29.9,25.1,29.95,East,90,0.0,-999.0,82,0.00,,,0.00,Wunderground v.1.15,2013-01-20 04:30:00,
2013-01-19 23:35:00,29.9,25.1,29.95,East,90,0.0,-999.0,82,0.00,,,0.00,Wunderground v.1.15,2013-01-20 04:35:00,
2013-01-19 23:40:00,29.9,25.1,29.95,East,90,0.0,-999.0,82,0.00,,,0.00,Wunderground v.1.15,2013-01-20 04:40:00,
2013-01-19 23:45:00,32.7,24.7,29.93,NE,45,0.0,-999.0,72,0.00,,,0.00,Wunderground v.1.15,2013-01-20 04:45:00,
2013-01-19 23:50:00,32.7,24.7,29.93,NE,45,0.0,-999.0,72,0.00,,,0.00,Wunderground v.1.15,2013-01-20 04:50:00,
2013-01-19 23:55:00,32.7,24.7,29.93,NE,45,0.0,-999.0,72,0.00,,,0.00,Wunderground v.1.15,2013-01-20 04:55:00,